createdAt,value
2023-05-02T00:00:37.183Z,99.90
2023-05-02T00:04:19.436Z,99.90
2023-05-02T00:08:01.603Z,99.90
2023-05-02T00:11:43.842Z,99.90
2023-05-02T00:15:27.644Z,99.90
2023-05-02T00:19:09.520Z,99.90
2023-05-02T00:22:51.365Z,99.90
2023-05-02T00:26:33.266Z,99.90
2023-05-02T00:30:15.319Z,99.90
2023-05-02T00:33:57.425Z,99.90
2023-05-02T00:37:39.741Z,99.90
2023-05-02T00:41:21.756Z,99.90
2023-05-02T00:45:07.131Z,99.90
2023-05-02T00:48:49.098Z,99.90
2023-05-02T00:52:31.359Z,99.90
2023-05-02T00:56:13.274Z,99.90
2023-05-02T00:59:55.425Z,99.90
2023-05-02T01:04:06.670Z,99.90
2023-05-02T01:08:00.863Z,99.90
2023-05-02T01:12:15.700Z,99.90
2023-05-02T01:15:59.747Z,99.90
2023-05-02T01:19:51.465Z,99.90
2023-05-02T01:23:44.353Z,99.90
2023-05-02T01:27:41.470Z,99.90
2023-05-02T01:31:27.199Z,99.90
2023-05-02T01:35:10.959Z,99.90
2023-05-02T01:38:55.942Z,99.90
2023-05-02T01:42:39.464Z,99.90
2023-05-02T01:46:22.971Z,99.90
2023-05-02T01:50:09.382Z,99.90
2023-05-02T01:53:53.163Z,99.90
2023-05-02T01:57:37.244Z,99.90
2023-05-02T02:01:20.785Z,99.90
2023-05-02T02:05:06.057Z,99.90
2023-05-02T02:08:48.426Z,99.90
2023-05-02T02:12:41.894Z,99.90
2023-05-02T02:16:29.042Z,99.90
2023-05-02T02:20:13.403Z,99.90
2023-05-02T02:23:57.454Z,99.90
2023-05-02T02:27:40.416Z,99.90
2023-05-02T02:31:22.570Z,99.90
2023-05-02T02:35:05.727Z,99.90
2023-05-02T02:39:35.533Z,99.90
2023-05-02T02:43:38.424Z,99.90
2023-05-02T02:47:39.522Z,99.90
2023-05-02T02:51:38.676Z,99.90
2023-05-02T02:55:38.225Z,99.90
2023-05-02T02:59:27.837Z,99.90
2023-05-02T03:03:10.693Z,99.90
2023-05-02T03:06:52.784Z,99.90
2023-05-02T03:10:35.466Z,99.90
2023-05-02T03:14:17.884Z,99.90
2023-05-02T03:17:59.737Z,99.90
2023-05-02T03:21:41.876Z,99.90
2023-05-02T03:25:23.920Z,99.90
2023-05-02T03:29:05.902Z,99.90
2023-05-02T03:32:47.980Z,99.90
2023-05-02T03:36:29.937Z,99.90
2023-05-02T03:40:12.077Z,99.90
2023-05-02T03:43:54.256Z,99.90
2023-05-02T03:47:36.233Z,99.90
2023-05-02T03:51:18.195Z,99.90
2023-05-02T03:55:01.578Z,99.90
2023-05-02T03:58:43.791Z,99.90
2023-05-02T04:02:26.384Z,99.90
2023-05-02T04:06:08.642Z,99.90
2023-05-02T04:09:50.501Z,99.90
2023-05-02T04:13:32.448Z,99.90
2023-05-02T04:17:16.090Z,99.90
2023-05-02T04:20:58.756Z,99.90
2023-05-02T04:24:40.753Z,99.90
2023-05-02T04:28:23.338Z,99.90
2023-05-02T04:32:05.395Z,99.90
2023-05-02T04:35:47.386Z,99.90
2023-05-02T04:39:29.252Z,99.90
2023-05-02T04:43:11.149Z,99.90
2023-05-02T04:46:53.330Z,99.90
2023-05-02T04:50:35.582Z,99.90
2023-05-02T04:54:17.440Z,99.90
2023-05-02T04:57:59.703Z,99.90
2023-05-02T05:01:41.817Z,99.90
2023-05-02T05:05:23.917Z,99.90
2023-05-02T05:09:06.150Z,99.90
2023-05-02T05:12:49.402Z,99.90
2023-05-02T05:16:32.047Z,99.90
2023-05-02T05:20:14.991Z,99.90
2023-05-02T05:23:56.957Z,99.90
2023-05-02T05:27:39.891Z,99.90
2023-05-02T05:31:22.927Z,99.90
2023-05-02T05:35:05.371Z,99.90
2023-05-02T05:38:47.281Z,99.90
2023-05-02T05:42:29.326Z,99.90
2023-05-02T05:46:43.905Z,99.90
2023-05-02T05:50:27.039Z,99.90
2023-05-02T05:54:18.063Z,99.90
2023-05-02T05:58:00.001Z,99.90
2023-05-02T06:01:42.664Z,99.90
2023-05-02T06:05:33.685Z,99.90
2023-05-02T06:09:16.071Z,99.90
2023-05-02T06:13:05.076Z,99.90
2023-05-02T06:16:49.652Z,99.90
2023-05-02T06:20:32.224Z,99.90
2023-05-02T06:24:20.740Z,99.90
2023-05-02T06:28:05.068Z,99.90
2023-05-02T06:31:47.464Z,99.90
2023-05-02T06:35:36.119Z,99.90
2023-05-02T06:39:22.081Z,99.90
2023-05-02T06:43:04.003Z,99.90
2023-05-02T06:50:58.457Z,99.90
2023-05-02T06:55:26.805Z,99.90
2023-05-02T06:59:37.125Z,99.90
2023-05-02T07:03:19.614Z,99.90
2023-05-02T07:11:10.584Z,99.90
2023-05-02T07:15:23.877Z,99.90
2023-05-02T07:19:06.931Z,99.90
2023-05-02T07:26:56.826Z,99.90
2023-05-02T07:31:10.124Z,99.90
2023-05-02T07:34:56.781Z,99.90
2023-05-02T07:42:42.923Z,99.90
2023-05-02T07:50:38.296Z,99.90
2023-05-02T07:54:50.114Z,99.90
2023-05-02T07:58:32.214Z,99.90
2023-05-02T08:03:00.406Z,99.90
2023-05-02T08:07:11.786Z,99.90
2023-05-02T08:10:54.182Z,99.90
2023-05-02T08:15:04.282Z,99.90
2023-05-02T08:18:46.881Z,99.90
2023-05-02T08:23:00.275Z,99.90
2023-05-02T08:26:42.868Z,99.90
2023-05-02T08:31:11.268Z,99.90
2023-05-02T08:35:22.801Z,99.90
2023-05-02T08:39:05.367Z,99.90
2023-05-02T08:46:56.331Z,99.90
2023-05-02T08:51:09.963Z,99.90
2023-05-02T08:54:53.074Z,99.90
2023-05-02T09:03:31.876Z,99.90
2023-05-02T09:07:15.443Z,99.90
2023-05-02T09:11:43.050Z,99.90
2023-05-02T09:20:26.242Z,99.90
2023-05-02T09:33:05.842Z,99.90
2023-05-02T09:41:00.472Z,99.90
2023-05-02T09:45:11.960Z,99.90
2023-05-02T09:48:56.141Z,99.90
2023-05-02T09:57:36.259Z,99.90
2023-05-02T10:01:19.837Z,99.90
2023-05-02T10:05:47.967Z,99.90
2023-05-02T10:13:42.821Z,99.90
2023-05-02T10:25:54.810Z,99.90
2023-05-02T10:34:02.137Z,99.90
2023-05-02T10:38:20.404Z,99.90
2023-05-02T10:50:58.705Z,99.90
2023-05-02T10:55:13.135Z,99.90
2023-05-02T11:07:46.800Z,99.90
2023-05-02T11:12:05.469Z,99.90
2023-05-02T11:20:10.135Z,99.90
2023-05-02T11:24:28.541Z,99.90
2023-05-02T11:45:56.551Z,99.90
2023-05-02T11:54:57.418Z,99.90
2023-05-02T12:04:03.636Z,99.90
2023-05-02T12:08:24.808Z,99.90
2023-05-02T12:16:20.180Z,98.20
2023-05-02T12:25:18.686Z,99.30
2023-05-02T12:33:13.915Z,96.90
2023-05-02T12:42:13.042Z,97.70
2023-05-02T12:54:53.866Z,96.10
2023-05-02T13:02:47.580Z,96.50
2023-05-02T13:10:37.107Z,95.30
2023-05-02T13:14:54.100Z,94.20
2023-05-02T13:27:33.278Z,93.10
2023-05-02T13:31:46.962Z,93.00
2023-05-02T13:44:28.140Z,92.60
2023-05-02T13:52:17.016Z,91.50
2023-05-02T13:56:34.179Z,92.10
2023-05-02T14:04:37.694Z,94.50
2023-05-02T14:08:56.366Z,91.60
2023-05-02T14:20:30.998Z,93.00
2023-05-02T14:24:42.554Z,92.40
2023-05-02T14:32:53.575Z,92.60
2023-05-02T14:37:07.156Z,93.20
2023-05-02T14:45:17.171Z,92.30
2023-05-02T14:57:41.423Z,94.00
2023-05-02T15:05:32.277Z,92.90
2023-05-02T15:09:49.281Z,92.70
2023-05-02T15:18:48.543Z,94.20
2023-05-02T15:26:58.231Z,93.10
2023-05-02T15:31:11.351Z,91.60
2023-05-02T15:39:04.352Z,93.00
2023-05-02T15:47:00.135Z,92.10
2023-05-02T16:04:07.136Z,93.30
2023-05-02T16:08:20.032Z,91.80
2023-05-02T16:24:07.120Z,91.50
2023-05-02T16:32:03.008Z,91.00
2023-05-02T16:40:05.889Z,91.60
2023-05-02T16:44:24.607Z,91.30
2023-05-02T16:52:30.046Z,92.80
2023-05-02T16:56:47.814Z,92.90
2023-05-02T17:04:53.265Z,93.70
2023-05-02T17:09:12.159Z,94.20
2023-05-02T17:26:18.882Z,94.30
2023-05-02T17:34:05.162Z,94.40
2023-05-02T17:42:07.220Z,95.00
2023-05-02T17:55:27.200Z,95.80
2023-05-02T18:03:26.072Z,96.20
2023-05-02T18:12:19.236Z,96.20
2023-05-02T18:20:26.255Z,96.70
2023-05-02T18:24:45.318Z,97.00
2023-05-02T18:29:14.377Z,97.20
2023-05-02T18:38:09.292Z,97.80
2023-05-02T18:53:56.564Z,98.30
2023-05-02T19:01:52.385Z,98.60
2023-05-02T19:09:58.943Z,98.90
2023-05-02T19:18:43.482Z,99.60
2023-05-02T19:26:42.969Z,99.90
2023-05-02T19:31:03.159Z,99.90
2023-05-02T19:34:45.852Z,99.90
2023-05-02T19:38:27.779Z,99.90
2023-05-02T19:42:09.839Z,99.90
2023-05-02T19:45:51.811Z,99.90
2023-05-02T19:49:33.904Z,99.90
2023-05-02T19:53:15.988Z,99.90
2023-05-02T19:56:58.035Z,99.90
2023-05-02T20:00:41.426Z,99.90
2023-05-02T20:04:25.129Z,99.90
2023-05-02T20:08:07.038Z,99.90
2023-05-02T20:11:49.020Z,99.90
2023-05-02T20:15:31.409Z,99.90
2023-05-02T20:19:14.384Z,99.90
2023-05-02T20:22:58.175Z,99.90
2023-05-02T20:26:40.128Z,99.90
2023-05-02T20:30:22.243Z,99.90
2023-05-02T20:34:04.343Z,99.90
2023-05-02T20:37:47.224Z,99.90
2023-05-02T20:41:29.928Z,99.90
2023-05-02T20:45:12.749Z,99.90
2023-05-02T20:48:54.989Z,99.90
2023-05-02T20:52:40.171Z,99.90
2023-05-02T20:56:22.128Z,99.90
2023-05-02T21:00:04.772Z,99.90
2023-05-02T21:03:47.051Z,99.90
2023-05-02T21:07:28.985Z,99.90
2023-05-02T21:11:15.546Z,99.90
2023-05-02T21:14:57.426Z,99.90
2023-05-02T21:18:39.417Z,99.90
2023-05-02T21:22:21.481Z,99.90
2023-05-02T21:26:04.046Z,99.90
2023-05-02T21:29:46.037Z,99.90
2023-05-02T21:33:28.158Z,99.90
2023-05-02T21:37:10.132Z,99.90
2023-05-02T21:40:52.772Z,99.90
2023-05-02T21:44:34.740Z,99.90
2023-05-02T21:48:17.915Z,99.90
2023-05-02T21:51:59.843Z,99.90
2023-05-02T21:55:41.867Z,99.90
2023-05-02T21:59:23.754Z,99.90
2023-05-02T22:03:08.527Z,99.90
2023-05-02T22:06:54.648Z,99.90
2023-05-02T22:10:38.861Z,99.90
2023-05-02T22:14:22.064Z,99.90
2023-05-02T22:18:07.069Z,99.90
2023-05-02T22:21:49.152Z,99.90
2023-05-02T22:25:31.214Z,99.90
2023-05-02T22:29:13.167Z,99.90
2023-05-02T22:32:55.207Z,99.90
2023-05-02T22:36:37.488Z,99.90
2023-05-02T22:40:19.525Z,99.90
2023-05-02T22:44:01.508Z,99.90
2023-05-02T22:47:43.452Z,99.90
2023-05-02T22:51:43.428Z,99.90
2023-05-02T22:55:29.402Z,99.90
2023-05-02T22:59:13.224Z,99.90
2023-05-02T23:03:01.715Z,99.90
2023-05-02T23:07:08.310Z,99.90
2023-05-02T23:15:01.031Z,99.90
2023-05-02T23:23:19.116Z,99.90
2023-05-02T23:27:08.623Z,99.90
2023-05-02T23:30:52.530Z,99.90
2023-05-02T23:34:52.917Z,99.90
2023-05-02T23:38:46.431Z,99.90
2023-05-02T23:42:30.294Z,99.90
2023-05-02T23:46:12.363Z,99.90
2023-05-02T23:49:54.600Z,99.90
2023-05-02T23:53:36.538Z,99.90
2023-05-02T23:57:19.015Z,99.90
